createdAt,value
2023-03-14T00:00:40.198Z,99.99
2023-03-14T00:01:40.183Z,99.99
2023-03-14T00:02:40.256Z,99.99
2023-03-14T00:03:40.148Z,99.99
2023-03-14T00:04:40.456Z,99.99
2023-03-14T00:05:40.120Z,99.99
2023-03-14T00:06:40.150Z,99.99
2023-03-14T00:07:40.145Z,99.99
2023-03-14T00:08:40.082Z,99.99
2023-03-14T00:09:40.080Z,99.99
2023-03-14T00:10:40.082Z,99.99
2023-03-14T00:11:40.103Z,99.99
2023-03-14T00:12:40.063Z,99.99
2023-03-14T00:13:40.052Z,99.99
2023-03-14T00:14:40.037Z,99.99
2023-03-14T00:15:40.117Z,99.99
2023-03-14T00:16:40.023Z,99.99
2023-03-14T00:17:40.023Z,99.99
2023-03-14T00:18:39.988Z,99.99
2023-03-14T00:19:40.020Z,99.99
2023-03-14T00:20:39.980Z,99.99
2023-03-14T00:21:40.207Z,99.99
2023-03-14T00:22:40.013Z,99.99
2023-03-14T00:23:40.047Z,99.99
2023-03-14T00:24:39.940Z,99.99
2023-03-14T00:25:39.946Z,99.99
2023-03-14T00:26:39.960Z,99.99
2023-03-14T00:27:40.009Z,99.99
2023-03-14T00:28:39.897Z,99.99
2023-03-14T00:29:39.905Z,99.99
2023-03-14T00:30:40.079Z,99.99
2023-03-14T00:31:39.933Z,99.99
2023-03-14T00:32:39.950Z,99.99
2023-03-14T00:33:39.891Z,99.99
2023-03-14T00:34:39.830Z,99.99
2023-03-14T00:35:40.075Z,99.99
2023-03-14T00:36:39.830Z,99.99
2023-03-14T00:37:39.911Z,99.99
2023-03-14T00:38:39.824Z,99.99
2023-03-14T00:39:39.836Z,99.99
2023-03-14T00:40:39.772Z,99.99
2023-03-14T00:41:39.816Z,99.99
2023-03-14T00:42:39.900Z,99.99
2023-03-14T00:43:39.755Z,99.99
2023-03-14T00:44:39.750Z,99.99
2023-03-14T00:45:39.739Z,99.99
2023-03-14T00:46:40.860Z,99.99
2023-03-14T00:47:39.752Z,99.99
2023-03-14T00:48:39.696Z,99.99
2023-03-14T00:49:39.686Z,99.99
2023-03-14T00:50:39.686Z,99.99
2023-03-14T00:51:39.699Z,99.99
2023-03-14T00:52:39.858Z,99.99
2023-03-14T00:53:39.678Z,99.99
2023-03-14T00:54:39.697Z,99.99
2023-03-14T00:55:39.673Z,99.99
2023-03-14T00:56:39.617Z,99.99
2023-03-14T00:57:39.605Z,99.99
2023-03-14T00:58:39.637Z,99.99
2023-03-14T00:59:39.583Z,99.99
2023-03-14T01:00:39.585Z,99.99
2023-03-14T01:01:39.595Z,99.99
2023-03-14T01:02:39.650Z,99.99
2023-03-14T01:03:39.578Z,99.99
2023-03-14T01:04:39.603Z,99.99
2023-03-14T01:05:39.580Z,99.99
2023-03-14T01:06:39.515Z,99.99
2023-03-14T01:07:39.536Z,99.99
2023-03-14T01:08:39.504Z,99.99
2023-03-14T01:09:39.494Z,99.99
2023-03-14T01:10:39.516Z,99.99
2023-03-14T01:11:39.534Z,99.99
2023-03-14T01:12:39.471Z,99.99
2023-03-14T01:13:39.469Z,99.99
2023-03-14T01:14:39.445Z,99.99
2023-03-14T01:15:39.448Z,99.99
2023-03-14T01:16:39.503Z,99.99
2023-03-14T01:17:39.419Z,99.99
2023-03-14T01:18:39.440Z,99.99
2023-03-14T01:19:39.405Z,99.99
2023-03-14T01:20:39.385Z,99.99
2023-03-14T01:21:39.388Z,99.99
2023-03-14T01:22:39.382Z,99.99
2023-03-14T01:23:39.356Z,99.99
2023-03-14T01:24:39.356Z,99.99
2023-03-14T01:25:39.329Z,99.99
2023-03-14T01:26:39.332Z,99.99
2023-03-14T01:27:39.347Z,99.99
2023-03-14T01:28:39.303Z,99.99
2023-03-14T01:29:39.337Z,99.99
2023-03-14T01:30:39.277Z,99.99
2023-03-14T01:31:39.308Z,99.99
2023-03-14T01:32:39.290Z,99.99
2023-03-14T01:33:39.278Z,99.99
2023-03-14T01:34:39.325Z,99.99
2023-03-14T01:35:39.286Z,99.99
2023-03-14T01:36:39.227Z,99.99
2023-03-14T01:37:39.214Z,99.99
2023-03-14T01:38:39.417Z,99.99
2023-03-14T01:39:39.219Z,99.99
2023-03-14T01:40:39.184Z,99.99
2023-03-14T01:41:39.182Z,99.99
2023-03-14T01:42:39.168Z,99.99
2023-03-14T01:43:39.285Z,99.99
2023-03-14T01:44:39.214Z,99.99
2023-03-14T01:45:39.194Z,99.99
2023-03-14T01:46:39.168Z,99.99
2023-03-14T01:47:39.133Z,99.99
2023-03-14T01:48:39.127Z,99.99
2023-03-14T01:49:39.128Z,99.99
2023-03-14T01:50:39.103Z,99.99
2023-03-14T01:51:39.298Z,99.99
2023-03-14T01:52:39.105Z,99.99
2023-03-14T01:53:39.074Z,99.99
2023-03-14T01:54:39.052Z,99.99
2023-03-14T01:55:39.047Z,99.99
2023-03-14T01:56:39.050Z,99.99
2023-03-14T01:57:39.018Z,99.99
2023-03-14T01:58:39.025Z,99.99
2023-03-14T01:59:39.056Z,99.99
2023-03-14T02:00:39.042Z,99.99
2023-03-14T02:01:39.104Z,99.99
2023-03-14T02:02:38.986Z,99.99
2023-03-14T02:03:39.070Z,99.99
2023-03-14T02:04:38.950Z,99.99
2023-03-14T02:05:38.961Z,99.99
2023-03-14T02:06:38.938Z,99.99
2023-03-14T02:07:38.928Z,99.99
2023-03-14T02:08:38.921Z,99.99
2023-03-14T02:09:38.911Z,99.99
2023-03-14T02:10:38.914Z,99.99
2023-03-14T02:11:38.899Z,99.99
2023-03-14T02:12:38.889Z,99.99
2023-03-14T02:13:38.887Z,99.99
2023-03-14T02:14:38.872Z,99.99
2023-03-14T02:15:38.901Z,99.99
2023-03-14T02:16:38.913Z,99.99
2023-03-14T02:17:38.858Z,99.99
2023-03-14T02:18:38.862Z,99.99
2023-03-14T02:19:38.942Z,99.99
2023-03-14T02:20:38.801Z,99.99
2023-03-14T02:21:38.802Z,99.99
2023-03-14T02:22:38.808Z,99.99
2023-03-14T02:23:38.765Z,99.99
2023-03-14T02:24:38.766Z,99.99
2023-03-14T02:25:38.761Z,99.99
2023-03-14T02:26:38.744Z,99.99
2023-03-14T02:27:38.738Z,99.99
2023-03-14T02:28:38.711Z,99.99
2023-03-14T02:29:38.731Z,99.99
2023-03-14T02:30:38.716Z,99.99
2023-03-14T02:31:38.841Z,99.99
2023-03-14T02:32:38.741Z,99.99
2023-03-14T02:33:38.689Z,99.99
2023-03-14T02:34:38.667Z,99.99
2023-03-14T02:35:38.673Z,99.99
2023-03-14T02:36:38.628Z,99.99
2023-03-14T02:37:38.624Z,99.99
2023-03-14T02:38:38.621Z,99.99
2023-03-14T02:39:38.619Z,99.99
2023-03-14T02:40:38.612Z,99.99
2023-03-14T02:41:38.618Z,99.99
2023-03-14T02:42:38.597Z,99.99
2023-03-14T02:43:38.587Z,99.99
2023-03-14T02:44:38.570Z,99.99
2023-03-14T02:45:38.643Z,99.99
2023-03-14T02:46:38.554Z,99.99
2023-03-14T02:47:38.583Z,99.99
2023-03-14T02:48:38.534Z,99.99
2023-03-14T02:49:38.523Z,99.99
2023-03-14T02:50:38.513Z,99.99
2023-03-14T02:51:38.521Z,99.99
2023-03-14T02:52:38.500Z,99.99
2023-03-14T02:53:38.475Z,99.99
2023-03-14T02:54:38.485Z,99.99
2023-03-14T02:55:38.489Z,99.99
2023-03-14T02:56:38.467Z,99.99
2023-03-14T02:57:38.494Z,99.99
2023-03-14T02:58:38.435Z,99.99
2023-03-14T02:59:38.419Z,99.99
2023-03-14T03:00:38.421Z,99.99
2023-03-14T03:01:38.477Z,99.99
2023-03-14T03:02:38.404Z,99.99
2023-03-14T03:03:38.550Z,99.99
2023-03-14T03:04:38.368Z,99.99
2023-03-14T03:05:38.401Z,99.99
2023-03-14T03:06:38.363Z,99.99
2023-03-14T03:07:38.555Z,99.99
2023-03-14T03:08:38.362Z,99.99
2023-03-14T03:09:38.337Z,99.99
2023-03-14T03:10:38.320Z,99.99
2023-03-14T03:11:38.308Z,99.99
2023-03-14T03:12:38.293Z,99.99
2023-03-14T03:13:38.279Z,99.99
2023-03-14T03:14:38.272Z,99.99
2023-03-14T03:15:38.278Z,99.99
2023-03-14T03:16:38.306Z,99.99
2023-03-14T03:17:38.237Z,99.99
2023-03-14T03:18:38.272Z,99.99
2023-03-14T03:19:38.249Z,99.99
2023-03-14T03:20:38.234Z,99.99
2023-03-14T03:21:38.226Z,99.99
2023-03-14T03:22:38.232Z,99.99
2023-03-14T03:23:38.188Z,99.99
2023-03-14T03:24:38.181Z,99.99
2023-03-14T03:25:38.219Z,99.99
2023-03-14T03:26:38.178Z,99.99
2023-03-14T03:27:38.160Z,99.99
2023-03-14T03:28:38.153Z,99.99
2023-03-14T03:29:38.151Z,99.99
2023-03-14T03:30:38.186Z,99.99
2023-03-14T03:31:38.138Z,99.99
2023-03-14T03:32:38.150Z,99.99
2023-03-14T03:33:38.103Z,99.99
2023-03-14T03:34:38.085Z,99.99
2023-03-14T03:35:38.169Z,99.99
2023-03-14T03:36:38.071Z,99.99
2023-03-14T03:37:38.101Z,99.99
2023-03-14T03:38:38.075Z,99.99
2023-03-14T03:39:38.039Z,99.99
2023-03-14T03:40:38.051Z,99.99
2023-03-14T03:41:38.049Z,99.99
2023-03-14T03:42:38.013Z,99.99
2023-03-14T03:43:38.005Z,99.99
2023-03-14T03:44:38.002Z,99.99
2023-03-14T03:45:37.993Z,99.99
2023-03-14T03:46:38.021Z,99.99
2023-03-14T03:47:37.984Z,99.99
2023-03-14T03:48:38.002Z,99.99
2023-03-14T03:49:37.934Z,99.99
2023-03-14T03:50:37.967Z,99.99
2023-03-14T03:51:37.945Z,99.99
2023-03-14T03:52:37.914Z,99.99
2023-03-14T03:53:37.968Z,99.99
2023-03-14T03:54:37.904Z,99.99
2023-03-14T03:55:37.889Z,99.99
2023-03-14T03:56:37.923Z,99.99
2023-03-14T03:57:37.861Z,99.99
2023-03-14T03:58:37.874Z,99.99
2023-03-14T03:59:37.927Z,99.99
2023-03-14T04:00:37.851Z,99.99
2023-03-14T04:01:37.830Z,99.99
2023-03-14T04:02:37.868Z,99.99
2023-03-14T04:03:37.851Z,99.99
2023-03-14T04:04:37.798Z,99.99
2023-03-14T04:05:37.795Z,99.99
2023-03-14T04:06:37.921Z,99.99
2023-03-14T04:07:37.800Z,99.99
2023-03-14T04:08:37.818Z,99.99
2023-03-14T04:09:37.753Z,99.99
2023-03-14T04:10:37.728Z,99.99
2023-03-14T04:11:37.747Z,99.99
2023-03-14T04:12:37.723Z,99.99
2023-03-14T04:13:37.927Z,99.99
2023-03-14T04:14:37.900Z,99.99
2023-03-14T04:15:37.719Z,99.99
2023-03-14T04:16:37.715Z,99.99
2023-03-14T04:17:37.714Z,99.99
2023-03-14T04:18:37.655Z,99.99
2023-03-14T04:19:37.649Z,99.99
2023-03-14T04:20:37.658Z,99.99
2023-03-14T04:21:37.668Z,99.99
2023-03-14T04:22:37.632Z,99.99
2023-03-14T04:23:37.669Z,99.99
2023-03-14T04:24:37.600Z,99.99
2023-03-14T04:25:37.594Z,99.99
2023-03-14T04:26:37.591Z,99.99
2023-03-14T04:27:37.616Z,99.99
2023-03-14T04:28:37.565Z,99.99
2023-03-14T04:29:37.569Z,99.99
2023-03-14T04:30:37.559Z,99.99
2023-03-14T04:31:37.617Z,99.99
2023-03-14T04:32:37.620Z,99.99
2023-03-14T04:33:37.538Z,99.99
2023-03-14T04:34:37.559Z,99.99
2023-03-14T04:35:37.552Z,99.99
2023-03-14T04:36:39.720Z,99.99
2023-03-14T04:37:37.481Z,99.99
2023-03-14T04:38:37.472Z,99.99
2023-03-14T04:39:37.519Z,99.99
2023-03-14T04:40:37.454Z,99.99
2023-03-14T04:41:37.461Z,99.99
2023-03-14T04:42:37.427Z,99.99
2023-03-14T04:43:37.420Z,99.99
2023-03-14T04:44:37.440Z,99.99
2023-03-14T04:45:37.391Z,99.99
2023-03-14T04:46:37.446Z,99.99
2023-03-14T04:47:37.386Z,99.99
2023-03-14T04:48:37.421Z,99.99
2023-03-14T04:49:37.369Z,99.99
2023-03-14T04:50:37.362Z,99.99
2023-03-14T04:51:37.332Z,99.99
2023-03-14T04:52:37.334Z,99.99
2023-03-14T04:53:37.319Z,99.99
2023-03-14T04:54:37.310Z,99.99
2023-03-14T04:55:37.452Z,99.99
2023-03-14T04:56:37.291Z,99.99
2023-03-14T04:57:37.285Z,99.99
2023-03-14T04:58:37.268Z,99.99
2023-03-14T04:59:37.273Z,99.99
2023-03-14T05:00:39.472Z,99.99
2023-03-14T05:01:37.309Z,99.99
2023-03-14T05:02:37.258Z,99.99
2023-03-14T05:03:37.276Z,99.99
2023-03-14T05:04:37.272Z,99.99
2023-03-14T05:05:37.218Z,99.99
2023-03-14T05:06:37.182Z,99.99
2023-03-14T05:07:37.199Z,99.99
2023-03-14T05:08:37.413Z,99.99
2023-03-14T05:09:37.194Z,99.99
2023-03-14T05:10:37.190Z,99.99
2023-03-14T05:11:37.276Z,99.99
2023-03-14T05:12:37.126Z,99.99
2023-03-14T05:13:39.264Z,99.99
2023-03-14T05:14:37.124Z,99.99
2023-03-14T05:15:37.100Z,99.99
2023-03-14T05:16:37.145Z,99.99
2023-03-14T05:17:37.129Z,99.99
2023-03-14T05:18:37.077Z,99.99
2023-03-14T05:19:37.089Z,99.99
2023-03-14T05:20:37.067Z,99.99
2023-03-14T05:21:37.078Z,99.99
2023-03-14T05:22:37.291Z,99.99
2023-03-14T05:23:37.014Z,99.99
2023-03-14T05:24:37.030Z,99.99
2023-03-14T05:25:37.013Z,99.99
2023-03-14T05:26:37.040Z,99.99
2023-03-14T05:27:37.038Z,99.99
2023-03-14T05:28:36.979Z,99.99
2023-03-14T05:29:36.993Z,99.99
2023-03-14T05:30:36.950Z,99.99
2023-03-14T05:31:36.984Z,99.99
2023-03-14T05:32:37.017Z,99.99
2023-03-14T05:33:36.952Z,99.99
2023-03-14T05:34:36.912Z,99.99
2023-03-14T05:35:36.961Z,99.99
2023-03-14T05:36:36.889Z,99.99
2023-03-14T05:37:36.889Z,99.99
2023-03-14T05:38:36.892Z,99.99
2023-03-14T05:39:36.895Z,99.99
2023-03-14T05:40:36.870Z,99.99
2023-03-14T05:41:36.865Z,99.99
2023-03-14T05:42:36.855Z,99.99
2023-03-14T05:43:36.939Z,99.99
2023-03-14T05:44:36.818Z,99.99
2023-03-14T05:45:36.905Z,99.99
2023-03-14T05:46:36.795Z,99.99
2023-03-14T05:47:36.833Z,99.99
2023-03-14T05:48:36.796Z,99.99
2023-03-14T05:49:36.779Z,99.99
2023-03-14T05:50:36.780Z,99.99
2023-03-14T05:51:36.761Z,99.99
2023-03-14T05:52:36.747Z,99.99
2023-03-14T05:53:36.770Z,99.99
2023-03-14T05:54:36.734Z,99.99
2023-03-14T05:55:36.710Z,99.99
2023-03-14T05:56:36.710Z,99.99
2023-03-14T05:57:36.754Z,99.99
2023-03-14T05:58:36.694Z,99.99
2023-03-14T05:59:36.687Z,99.99
2023-03-14T06:00:36.681Z,99.99
2023-03-14T06:01:36.683Z,99.99
2023-03-14T06:02:36.680Z,99.99
2023-03-14T06:03:36.731Z,99.99
2023-03-14T06:04:36.664Z,99.99
2023-03-14T06:05:36.635Z,99.99
2023-03-14T06:06:36.593Z,99.99
2023-03-14T06:07:36.622Z,99.99
2023-03-14T06:08:36.665Z,99.99
2023-03-14T06:09:36.571Z,99.99
2023-03-14T06:10:36.608Z,99.99
2023-03-14T06:11:36.584Z,99.99
2023-03-14T06:12:36.542Z,99.99
2023-03-14T06:13:36.527Z,99.99
2023-03-14T06:14:36.538Z,99.99
2023-03-14T06:15:36.547Z,99.99
2023-03-14T06:16:36.803Z,99.99
2023-03-14T06:17:36.487Z,99.99
2023-03-14T06:18:36.507Z,99.99
2023-03-14T06:19:36.488Z,99.99
2023-03-14T06:20:36.462Z,99.99
2023-03-14T06:21:36.449Z,99.99
2023-03-14T06:22:36.435Z,99.99
2023-03-14T06:23:36.448Z,99.99
2023-03-14T06:24:36.408Z,99.99
2023-03-14T06:25:36.422Z,99.99
2023-03-14T06:26:36.410Z,99.99
2023-03-14T06:27:36.445Z,99.99
2023-03-14T06:28:36.394Z,99.99
2023-03-14T06:29:36.383Z,99.99
2023-03-14T06:30:36.396Z,99.99
2023-03-14T06:31:36.367Z,99.99
2023-03-14T06:32:36.395Z,99.99
2023-03-14T06:33:36.356Z,99.99
2023-03-14T06:34:36.345Z,99.99
2023-03-14T06:35:36.361Z,99.99
2023-03-14T06:36:36.362Z,99.99
2023-03-14T06:37:36.284Z,99.99
2023-03-14T06:38:36.326Z,99.99
2023-03-14T06:39:36.282Z,99.99
2023-03-14T06:40:36.293Z,99.99
2023-03-14T06:41:36.263Z,99.99
2023-03-14T06:42:36.257Z,99.99
2023-03-14T06:43:36.238Z,99.99
2023-03-14T06:44:36.224Z,99.99
2023-03-14T06:45:36.233Z,99.99
2023-03-14T06:46:36.414Z,99.99
2023-03-14T06:47:36.253Z,99.99
2023-03-14T06:48:36.199Z,99.99
2023-03-14T06:49:36.172Z,99.99
2023-03-14T06:50:36.176Z,99.99
2023-03-14T06:51:36.161Z,99.99
2023-03-14T06:52:36.230Z,99.99
2023-03-14T06:53:36.149Z,99.99
2023-03-14T06:54:36.123Z,99.99
2023-03-14T06:55:36.138Z,99.99
2023-03-14T06:56:36.120Z,99.99
2023-03-14T06:57:36.179Z,99.99
2023-03-14T06:58:36.094Z,99.99
2023-03-14T06:59:36.083Z,99.99
2023-03-14T07:00:36.085Z,99.99
2023-03-14T07:01:36.352Z,99.99
2023-03-14T07:02:42.548Z,99.99
2023-03-14T07:03:36.064Z,99.99
2023-03-14T07:04:36.150Z,99.99
2023-03-14T07:05:36.024Z,99.99
2023-03-14T07:06:36.023Z,99.99
2023-03-14T07:07:36.013Z,99.99
2023-03-14T07:08:36.005Z,99.99
2023-03-14T07:09:35.990Z,99.99
2023-03-14T07:10:35.972Z,99.99
2023-03-14T07:11:35.971Z,99.99
2023-03-14T07:12:35.986Z,99.99
2023-03-14T07:13:35.960Z,99.99
2023-03-14T07:14:35.931Z,99.99
2023-03-14T07:15:35.985Z,99.99
2023-03-14T07:16:35.920Z,99.99
2023-03-14T07:17:36.279Z,99.99
2023-03-14T07:18:35.904Z,99.99
2023-03-14T07:19:35.946Z,99.99
2023-03-14T07:20:35.897Z,99.99
2023-03-14T07:21:35.868Z,99.99
2023-03-14T07:22:35.869Z,99.99
2023-03-14T07:23:35.843Z,99.99
2023-03-14T07:24:35.856Z,99.99
2023-03-14T07:25:35.829Z,99.99
2023-03-14T07:26:35.854Z,99.99
2023-03-14T07:27:35.839Z,99.99
2023-03-14T07:28:35.794Z,99.99
2023-03-14T07:29:35.806Z,99.99
2023-03-14T07:30:35.783Z,99.99
2023-03-14T07:31:35.776Z,99.99
2023-03-14T07:32:35.824Z,99.99
2023-03-14T07:33:35.770Z,99.99
2023-03-14T07:34:35.746Z,99.99
2023-03-14T07:35:35.889Z,99.99
2023-03-14T07:36:35.745Z,99.99
2023-03-14T07:37:35.758Z,99.99
2023-03-14T07:38:35.764Z,99.99
2023-03-14T07:39:35.734Z,99.99
2023-03-14T07:40:35.784Z,99.99
2023-03-14T07:41:35.730Z,99.99
2023-03-14T07:42:35.700Z,99.99
2023-03-14T07:43:35.669Z,99.99
2023-03-14T07:44:35.667Z,99.99
2023-03-14T07:45:42.571Z,99.99
2023-03-14T07:46:35.757Z,99.99
2023-03-14T07:47:35.655Z,99.99
2023-03-14T07:48:35.675Z,99.99
2023-03-14T07:49:35.643Z,99.99
2023-03-14T07:50:35.633Z,99.99
2023-03-14T07:51:35.621Z,99.99
2023-03-14T07:52:35.594Z,99.99
2023-03-14T07:53:35.630Z,99.99
2023-03-14T07:54:35.578Z,99.99
2023-03-14T07:55:35.596Z,99.99
2023-03-14T07:56:35.561Z,99.99
2023-03-14T07:57:35.584Z,99.99
2023-03-14T07:58:35.603Z,99.99
2023-03-14T07:59:35.721Z,99.99
2023-03-14T08:00:35.562Z,99.99
2023-03-14T08:01:35.559Z,99.99
2023-03-14T08:02:35.624Z,99.99
2023-03-14T08:03:35.585Z,99.99
2023-03-14T08:04:35.531Z,99.99
2023-03-14T08:05:35.552Z,99.99
2023-03-14T08:06:35.484Z,99.99
2023-03-14T08:07:35.519Z,99.99
2023-03-14T08:08:35.486Z,99.99
2023-03-14T08:09:35.491Z,99.99
2023-03-14T08:10:35.458Z,99.99
2023-03-14T08:11:35.414Z,99.99
2023-03-14T08:12:35.472Z,99.99
2023-03-14T08:13:35.401Z,99.99
2023-03-14T08:14:35.380Z,99.99
2023-03-14T08:15:35.377Z,99.99
2023-03-14T08:16:35.484Z,99.99
2023-03-14T08:17:35.358Z,99.99
2023-03-14T08:18:35.575Z,99.99
2023-03-14T08:19:35.388Z,99.99
2023-03-14T08:20:35.354Z,99.99
2023-03-14T08:21:35.340Z,99.99
2023-03-14T08:22:35.358Z,99.99
2023-03-14T08:23:35.543Z,99.99
2023-03-14T08:24:35.389Z,99.99
2023-03-14T08:25:35.457Z,99.99
2023-03-14T08:26:35.289Z,99.99
2023-03-14T08:27:35.292Z,99.99
2023-03-14T08:28:35.282Z,99.99
2023-03-14T08:29:35.295Z,99.99
2023-03-14T08:30:35.353Z,99.99
2023-03-14T08:31:35.322Z,99.99
2023-03-14T08:32:35.255Z,99.99
2023-03-14T08:33:35.230Z,99.99
2023-03-14T08:34:35.215Z,99.99
2023-03-14T08:35:35.194Z,99.99
2023-03-14T08:36:35.279Z,99.99
2023-03-14T08:37:35.172Z,99.99
2023-03-14T08:38:35.220Z,99.99
2023-03-14T08:39:35.332Z,99.99
2023-03-14T08:40:35.185Z,99.99
2023-03-14T08:41:35.155Z,99.99
2023-03-14T08:42:35.255Z,99.99
2023-03-14T08:43:35.162Z,99.99
2023-03-14T08:44:35.149Z,99.99
2023-03-14T08:45:35.121Z,99.99
2023-03-14T08:46:35.150Z,99.99
2023-03-14T08:47:35.107Z,99.99
2023-03-14T08:48:35.094Z,99.99
2023-03-14T08:49:35.176Z,99.99
2023-03-14T08:50:35.093Z,99.99
2023-03-14T08:51:35.093Z,99.99
2023-03-14T08:52:35.100Z,99.99
2023-03-14T08:53:35.046Z,99.99
2023-03-14T08:54:35.037Z,99.99
2023-03-14T08:55:35.103Z,99.99
2023-03-14T08:56:35.031Z,99.99
2023-03-14T08:57:35.001Z,99.99
2023-03-14T08:58:35.006Z,98.85
2023-03-14T08:59:35.029Z,99.04
2023-03-14T09:00:34.970Z,99.99
2023-03-14T09:01:35.055Z,99.24
2023-03-14T09:02:34.987Z,97.61
2023-03-14T09:03:34.961Z,97.33
2023-03-14T09:04:35.026Z,97.04
2023-03-14T09:05:34.936Z,98.13
2023-03-14T09:06:34.989Z,98.99
2023-03-14T09:07:34.945Z,99.09
2023-03-14T09:08:36.293Z,98.61
2023-03-14T09:09:34.910Z,96.32
2023-03-14T09:10:34.950Z,98.28
2023-03-14T09:11:35.041Z,99.23
2023-03-14T09:12:34.909Z,97.03
2023-03-14T09:13:34.922Z,99.23
2023-03-14T09:14:34.869Z,99.23
2023-03-14T09:15:34.889Z,99.23
2023-03-14T09:16:34.898Z,99.04
2023-03-14T09:17:34.831Z,99.23
2023-03-14T09:18:34.905Z,99.99
2023-03-14T09:19:34.889Z,99.99
2023-03-14T09:20:34.859Z,98.28
2023-03-14T09:21:35.017Z,99.57
2023-03-14T09:22:34.853Z,99.99
2023-03-14T09:23:34.845Z,99.99
2023-03-14T09:24:34.806Z,99.99
2023-03-14T09:25:34.795Z,99.99
2023-03-14T09:26:34.852Z,99.99
2023-03-14T09:27:34.814Z,99.99
2023-03-14T09:28:34.752Z,99.99
2023-03-14T09:29:34.763Z,99.99
2023-03-14T09:30:34.745Z,99.99
2023-03-14T09:31:34.784Z,99.47
2023-03-14T09:32:35.020Z,99.99
2023-03-14T09:33:34.724Z,98.99
2023-03-14T09:34:36.784Z,99.99
2023-03-14T09:35:34.739Z,99.99
2023-03-14T09:36:34.694Z,99.99
2023-03-14T09:37:34.679Z,99.99
2023-03-14T09:38:34.708Z,99.95
2023-03-14T09:39:34.717Z,99.99
2023-03-14T09:40:34.691Z,99.99
2023-03-14T09:41:34.686Z,99.99
2023-03-14T09:42:34.659Z,99.85
2023-03-14T09:43:34.674Z,99.99
2023-03-14T09:44:34.656Z,99.99
2023-03-14T09:45:34.680Z,99.99
2023-03-14T09:46:34.634Z,99.99
2023-03-14T09:47:34.591Z,99.90
2023-03-14T09:48:34.605Z,99.99
2023-03-14T09:49:34.594Z,99.80
2023-03-14T09:50:34.563Z,99.23
2023-03-14T09:51:34.664Z,99.04
2023-03-14T09:52:34.779Z,97.89
2023-03-14T09:53:34.595Z,98.04
2023-03-14T09:54:34.598Z,98.90
2023-03-14T09:55:36.542Z,96.89
2023-03-14T09:56:34.509Z,97.28
2023-03-14T09:57:34.534Z,97.28
2023-03-14T09:58:34.543Z,96.61
2023-03-14T09:59:34.552Z,95.46
2023-03-14T10:00:34.703Z,97.28
2023-03-14T10:01:34.606Z,97.94
2023-03-14T10:02:34.483Z,96.80
2023-03-14T10:03:34.486Z,96.66
2023-03-14T10:04:34.493Z,94.36
2023-03-14T10:05:34.462Z,95.17
2023-03-14T10:06:34.434Z,96.99
2023-03-14T10:07:34.482Z,97.18
2023-03-14T10:08:34.460Z,96.13
2023-03-14T10:09:34.430Z,96.61
2023-03-14T10:10:34.457Z,96.13
2023-03-14T10:11:34.390Z,97.66
2023-03-14T10:12:34.719Z,96.13
2023-03-14T10:13:34.530Z,97.28
2023-03-14T10:14:34.390Z,98.23
2023-03-14T10:15:34.464Z,96.61
2023-03-14T10:16:34.473Z,96.51
2023-03-14T10:17:34.406Z,96.84
2023-03-14T10:18:34.373Z,97.13
2023-03-14T10:19:34.331Z,98.47
2023-03-14T10:20:34.415Z,98.57
2023-03-14T10:21:34.356Z,97.71
2023-03-14T10:22:34.313Z,97.80
2023-03-14T10:23:34.303Z,96.08
2023-03-14T10:24:34.337Z,97.33
2023-03-14T10:25:34.332Z,96.84
2023-03-14T10:26:34.309Z,97.33
2023-03-14T10:27:34.262Z,99.04
2023-03-14T10:28:34.264Z,98.95
2023-03-14T10:29:34.245Z,99.99
2023-03-14T10:30:34.258Z,97.90
2023-03-14T10:31:34.300Z,98.04
2023-03-14T10:32:34.335Z,98.33
2023-03-14T10:33:34.238Z,97.18
2023-03-14T10:34:34.217Z,98.13
2023-03-14T10:35:34.243Z,98.13
2023-03-14T10:36:34.238Z,99.99
2023-03-14T10:37:34.240Z,99.38
2023-03-14T10:38:34.216Z,99.04
2023-03-14T10:39:34.192Z,99.99
2023-03-14T10:40:34.168Z,99.71
2023-03-14T10:41:34.205Z,99.99
2023-03-14T10:42:34.172Z,99.99
2023-03-14T10:43:34.164Z,99.99
2023-03-14T10:44:34.153Z,99.99
2023-03-14T10:45:34.132Z,99.99
2023-03-14T10:46:34.252Z,99.99
2023-03-14T10:47:34.132Z,99.99
2023-03-14T10:48:34.106Z,99.99
2023-03-14T10:49:34.108Z,99.99
2023-03-14T10:50:34.116Z,99.99
2023-03-14T10:51:34.114Z,99.99
2023-03-14T10:53:00.441Z,99.99
2023-03-14T10:53:34.076Z,99.99
2023-03-14T10:54:34.519Z,99.99
2023-03-14T10:55:34.073Z,99.99
2023-03-14T10:56:34.065Z,99.99
2023-03-14T10:57:34.029Z,99.99
2023-03-14T10:58:34.054Z,99.99
2023-03-14T10:59:34.062Z,99.99
2023-03-14T11:00:34.044Z,99.99
2023-03-14T11:01:34.056Z,99.99
2023-03-14T11:02:34.019Z,99.99
2023-03-14T11:03:34.043Z,99.62
2023-03-14T11:04:34.039Z,99.99
2023-03-14T11:05:34.051Z,99.14
2023-03-14T11:06:33.969Z,97.04
2023-03-14T11:07:33.961Z,98.09
2023-03-14T11:08:33.954Z,97.90
2023-03-14T11:09:33.946Z,98.24
2023-03-14T11:10:33.936Z,96.70
2023-03-14T11:11:33.978Z,96.80
2023-03-14T11:12:33.936Z,97.95
2023-03-14T11:13:33.912Z,95.03
2023-03-14T11:14:33.932Z,93.88
2023-03-14T11:15:33.934Z,93.69
2023-03-14T11:16:33.950Z,93.30
2023-03-14T11:17:33.878Z,91.44
2023-03-14T11:18:33.868Z,95.17
2023-03-14T11:19:35.527Z,93.50
2023-03-14T11:20:33.871Z,93.40
2023-03-14T11:21:33.882Z,94.45
2023-03-14T11:22:33.838Z,94.89
2023-03-14T11:23:33.832Z,94.21
2023-03-14T11:24:33.873Z,95.56
2023-03-14T11:25:33.818Z,93.35
2023-03-14T11:26:33.870Z,93.55
2023-03-14T11:27:33.843Z,94.41
2023-03-14T11:28:33.855Z,94.50
2023-03-14T11:29:33.790Z,94.79
2023-03-14T11:30:33.799Z,94.41
2023-03-14T11:31:33.835Z,96.70
2023-03-14T11:32:33.803Z,95.27
2023-03-14T11:33:33.773Z,95.27
2023-03-14T11:34:33.766Z,95.51
2023-03-14T11:35:33.849Z,95.70
2023-03-14T11:36:33.732Z,95.70
2023-03-14T11:37:33.806Z,96.37
2023-03-14T11:38:33.728Z,96.66
2023-03-14T11:39:33.754Z,96.18
2023-03-14T11:40:33.736Z,95.70
2023-03-14T11:41:33.725Z,95.98
2023-03-14T11:42:33.697Z,96.61
2023-03-14T11:43:33.716Z,96.61
2023-03-14T11:44:33.717Z,95.36
2023-03-14T11:45:33.695Z,94.50
2023-03-14T11:46:33.753Z,96.42
2023-03-14T11:47:33.660Z,95.51
2023-03-14T11:48:33.661Z,94.45
2023-03-14T11:49:33.676Z,92.54
2023-03-14T11:50:33.668Z,92.35
2023-03-14T11:51:34.214Z,93.50
2023-03-14T11:52:33.645Z,93.50
2023-03-14T11:53:33.643Z,92.44
2023-03-14T11:54:33.943Z,92.44
2023-03-14T11:55:33.596Z,93.79
2023-03-14T11:56:33.638Z,93.07
2023-03-14T11:57:33.915Z,92.30
2023-03-14T11:58:33.581Z,92.21
2023-03-14T11:59:33.602Z,92.97
2023-03-14T12:00:33.791Z,92.49
2023-03-14T12:01:33.648Z,93.50
2023-03-14T12:02:33.550Z,92.25
2023-03-14T12:03:33.856Z,91.77
2023-03-14T12:04:33.554Z,91.20
2023-03-14T12:05:33.550Z,92.35
2023-03-14T12:06:33.653Z,91.53
2023-03-14T12:07:33.612Z,90.48
2023-03-14T12:08:33.518Z,90.58
2023-03-14T12:09:33.506Z,90.44
2023-03-14T12:10:33.517Z,90.72
2023-03-14T12:11:33.518Z,90.53
2023-03-14T12:12:33.479Z,91.20
2023-03-14T12:13:33.523Z,91.49
2023-03-14T12:14:33.466Z,90.58
2023-03-14T12:15:33.479Z,88.62
2023-03-14T12:16:33.517Z,88.90
2023-03-14T12:17:33.462Z,89.48
2023-03-14T12:18:33.444Z,90.72
2023-03-14T12:19:33.440Z,89.76
2023-03-14T12:20:33.461Z,90.58
2023-03-14T12:21:33.422Z,90.39
2023-03-14T12:22:33.414Z,91.63
2023-03-14T12:23:33.448Z,92.69
2023-03-14T12:24:33.517Z,92.88
2023-03-14T12:25:33.450Z,92.30
2023-03-14T12:26:33.403Z,92.40
2023-03-14T12:27:33.611Z,92.21
2023-03-14T12:28:33.398Z,92.02
2023-03-14T12:29:33.399Z,91.92
2023-03-14T12:30:33.367Z,91.73
2023-03-14T12:31:33.431Z,91.73
2023-03-14T12:32:33.490Z,92.59
2023-03-14T12:33:33.557Z,92.78
2023-03-14T12:34:33.331Z,93.07
2023-03-14T12:35:33.415Z,92.97
2023-03-14T12:36:33.347Z,92.88
2023-03-14T12:37:33.307Z,93.26
2023-03-14T12:38:33.301Z,93.26
2023-03-14T12:39:33.323Z,95.36
2023-03-14T12:40:33.287Z,95.07
2023-03-14T12:41:33.282Z,94.60
2023-03-14T12:42:44.522Z,94.65
2023-03-14T12:43:33.303Z,92.25
2023-03-14T12:44:33.300Z,93.12
2023-03-14T12:45:33.343Z,92.63
2023-03-14T12:46:33.446Z,92.25
2023-03-14T12:47:33.260Z,90.63
2023-03-14T12:48:33.248Z,90.24
2023-03-14T12:49:33.234Z,90.63
2023-03-14T12:50:33.217Z,90.72
2023-03-14T12:51:33.253Z,89.86
2023-03-14T12:52:33.228Z,90.15